createdAt,value
2018-08-10T00:01:52.709Z,95818.59
2018-08-10T00:04:23.100Z,95819.63
2018-08-10T00:06:52.958Z,95812.14
2018-08-10T00:09:22.868Z,95817.98
2018-08-10T00:11:53.525Z,95819.59
2018-08-10T00:14:23.447Z,95823.78
2018-08-10T00:16:53.359Z,95814.70
2018-08-10T00:19:23.161Z,95817.64
2018-08-10T00:21:53.273Z,95813.78
2018-08-10T00:24:23.305Z,95813.50
2018-08-10T00:26:53.175Z,95818.36
2018-08-10T00:29:23.105Z,95815.84
2018-08-10T00:31:52.943Z,95821.01
2018-08-10T00:34:23.469Z,95814.48
2018-08-10T00:36:53.844Z,95819.63
2018-08-10T00:39:24.140Z,95815.27
2018-08-10T00:41:55.030Z,95814.13
2018-08-10T00:44:24.938Z,95813.97
2018-08-10T00:46:54.686Z,95811.64
2018-08-10T00:49:24.545Z,95812.16
2018-08-10T00:51:55.304Z,95815.34
2018-08-10T00:54:25.111Z,95812.39
2018-08-10T00:56:55.509Z,95820.53
2018-08-10T00:59:25.714Z,95803.72
2018-08-10T01:01:56.742Z,95804.61
2018-08-10T01:04:27.368Z,95805.54
2018-08-10T01:06:57.553Z,95806.48
2018-08-10T01:09:28.218Z,95811.09
2018-08-10T01:11:58.861Z,95811.30
2018-08-10T01:14:29.180Z,95815.12
2018-08-10T01:16:59.397Z,95816.16
2018-08-10T01:19:29.574Z,95816.69
2018-08-10T01:22:00.786Z,95813.80
2018-08-10T01:24:31.444Z,95814.11
2018-08-10T01:27:01.658Z,95812.91
2018-08-10T01:29:31.921Z,95818.83
2018-08-10T01:32:02.601Z,95813.79
2018-08-10T01:34:33.132Z,95816.84
2018-08-10T01:37:03.366Z,95818.09
2018-08-10T01:39:33.675Z,95827.73
2018-08-10T01:42:04.394Z,95832.50
2018-08-10T01:44:35.130Z,95832.92
2018-08-10T01:47:05.681Z,95829.63
2018-08-10T01:49:35.498Z,95835.22
2018-08-10T01:52:06.213Z,95835.23
2018-08-10T01:54:36.598Z,95842.45
2018-08-10T01:57:07.055Z,95843.58
2018-08-10T01:59:37.339Z,95839.34
2018-08-10T02:02:08.545Z,95848.63
2018-08-10T02:04:39.163Z,95842.83
2018-08-10T02:07:09.339Z,95845.98
2018-08-10T02:09:40.070Z,95843.61
2018-08-10T02:12:13.359Z,95848.17
2018-08-10T02:14:43.628Z,95846.36
2018-08-10T02:17:14.256Z,95840.06
2018-08-10T02:19:44.341Z,95833.78
2018-08-10T02:22:15.500Z,95830.96
2018-08-10T02:24:45.634Z,95829.09
2018-08-10T02:27:15.416Z,95842.22
2018-08-10T02:29:45.205Z,95844.50
2018-08-10T02:32:15.059Z,95853.73
2018-08-10T02:34:44.842Z,95863.50
2018-08-10T02:37:14.904Z,95860.66
2018-08-10T02:39:45.090Z,95864.19
2018-08-10T02:42:15.209Z,95867.81
2018-08-10T02:44:45.995Z,95863.42
2018-08-10T02:47:20.349Z,95864.94
2018-08-10T02:49:50.707Z,95871.52
2018-08-10T02:52:22.058Z,95875.36
2018-08-10T02:54:52.363Z,95880.14
2018-08-10T02:57:22.771Z,95881.23
2018-08-10T02:59:53.235Z,95873.88
2018-08-10T03:02:24.588Z,95877.51
2018-08-10T03:04:54.954Z,95877.17
2018-08-10T03:07:25.085Z,95877.72
2018-08-10T03:09:55.582Z,95871.82
2018-08-10T03:12:26.698Z,95869.50
2018-08-10T03:14:57.128Z,95876.89
2018-08-10T03:17:27.402Z,95875.04
2018-08-10T03:19:57.586Z,95873.48
2018-08-10T03:22:28.918Z,95873.73
2018-08-10T03:24:59.544Z,95871.73
2018-08-10T03:27:30.153Z,95873.73
2018-08-10T03:30:00.813Z,95877.91
2018-08-10T03:32:32.321Z,95880.84
2018-08-10T03:35:02.707Z,95882.73
2018-08-10T03:37:32.910Z,95886.96
2018-08-10T03:40:03.429Z,95895.89
2018-08-10T03:42:34.486Z,95893.92
2018-08-10T03:45:04.997Z,95892.57
2018-08-10T03:47:35.415Z,95892.86
2018-08-10T03:50:05.993Z,95890.43
2018-08-10T03:52:36.743Z,95884.07
2018-08-10T03:55:07.794Z,95879.73
2018-08-10T03:57:38.643Z,95881.34
2018-08-10T04:00:10.447Z,95877.56
2018-08-10T04:02:41.336Z,95881.20
2018-08-10T04:05:12.939Z,95878.42
2018-08-10T04:07:43.358Z,95884.11
2018-08-10T04:10:14.069Z,95879.48
2018-08-10T04:12:44.159Z,95884.22
2018-08-10T04:15:15.166Z,95882.83
2018-08-10T04:17:45.557Z,95887.53
2018-08-10T04:20:15.930Z,95895.53
2018-08-10T04:22:47.015Z,95898.42
2018-08-10T04:25:17.741Z,95897.02
2018-08-10T04:27:48.485Z,95903.84
2018-08-10T04:30:18.664Z,95904.06
2018-08-10T04:38:34.598Z,95901.73
2018-08-10T04:41:05.621Z,95903.42
2018-08-10T04:43:35.996Z,95903.00
2018-08-10T04:46:06.993Z,95907.11
2018-08-10T04:48:37.389Z,95907.09
2018-08-10T04:51:07.681Z,95908.02
2018-08-10T04:53:38.224Z,95904.44
2018-08-10T04:56:09.748Z,95915.75
2018-08-10T04:58:40.367Z,95919.02
2018-08-10T05:01:11.001Z,95914.53
2018-08-10T05:03:41.894Z,95916.45
2018-08-10T05:06:12.557Z,95914.49
2018-08-10T05:08:43.041Z,95918.71
2018-08-10T05:11:13.431Z,95909.78
2018-08-10T05:13:44.199Z,95910.88
2018-08-10T05:16:15.516Z,95911.97
2018-08-10T05:18:46.268Z,95909.09
2018-08-10T05:21:16.710Z,95916.52
2018-08-10T05:23:47.381Z,95907.45
2018-08-10T05:26:18.571Z,95907.67
2018-08-10T05:28:49.368Z,95919.50
2018-08-10T05:31:19.605Z,95919.55
2018-08-10T05:33:49.942Z,95915.31
2018-08-10T05:36:21.204Z,95916.99
2018-08-10T05:38:51.707Z,95917.25
2018-08-10T05:41:22.368Z,95914.41
2018-08-10T05:43:52.817Z,95916.55
2018-08-10T05:46:24.300Z,95925.06
2018-08-10T05:48:55.166Z,95920.70
2018-08-10T05:51:25.632Z,95923.56
2018-08-10T05:53:56.345Z,95918.09
2018-08-10T05:56:27.720Z,95913.64
2018-08-10T05:58:58.387Z,95907.66
2018-08-10T06:01:29.200Z,95912.27
2018-08-10T06:04:00.065Z,95912.09
2018-08-10T06:06:30.533Z,95910.75
2018-08-10T06:09:01.278Z,95903.91
2018-08-10T06:11:31.962Z,95900.73
2018-08-10T06:14:01.648Z,95899.16
2018-08-10T06:16:33.637Z,95905.66
2018-08-10T06:19:03.487Z,95897.47
2018-08-10T06:21:33.654Z,95902.34
2018-08-10T06:24:03.658Z,95892.94
2018-08-10T06:26:34.489Z,95890.30
2018-08-10T06:29:04.495Z,95898.55
2018-08-10T06:31:35.056Z,95893.88
2018-08-10T06:34:04.716Z,95893.02
2018-08-10T06:36:35.899Z,95889.30
2018-08-10T06:39:07.990Z,95893.02
2018-08-10T06:41:38.011Z,95887.98
2018-08-10T06:44:08.512Z,95889.66
2018-08-10T06:46:39.175Z,95889.44
2018-08-10T06:49:08.908Z,95883.35
2018-08-10T06:51:38.572Z,95883.72
2018-08-10T06:54:09.320Z,95891.95
2018-08-10T06:56:40.155Z,95883.00
2018-08-10T06:59:09.949Z,95880.02
2018-08-10T07:01:39.786Z,95879.39
2018-08-10T07:04:09.555Z,95877.19
2018-08-10T07:06:39.908Z,95872.29
2018-08-10T07:09:11.924Z,95866.66
2018-08-10T07:11:41.929Z,95868.74
2018-08-10T07:14:11.833Z,95861.06
2018-08-10T07:16:42.767Z,95854.52
2018-08-10T07:19:12.588Z,95855.70
2018-08-10T07:21:43.116Z,95852.76
2018-08-10T07:24:13.280Z,95857.81
2018-08-10T07:26:44.487Z,95845.61
2018-08-10T07:29:14.972Z,95849.81
2018-08-10T07:31:45.684Z,95847.08
2018-08-10T07:34:16.008Z,95844.87
2018-08-10T07:36:46.767Z,95845.31
2018-08-10T07:39:17.175Z,95848.61
2018-08-10T07:41:47.524Z,95848.77
2018-08-10T07:44:17.907Z,95841.58
2018-08-10T07:46:49.736Z,95842.72
2018-08-10T07:49:20.236Z,95841.14
2018-08-10T07:51:50.802Z,95839.22
2018-08-10T07:54:20.969Z,95835.48
2018-08-10T07:56:51.781Z,95838.98
2018-08-10T07:59:22.101Z,95834.91
2018-08-10T08:01:52.309Z,95837.81
2018-08-10T08:04:23.505Z,95825.83
2018-08-10T08:06:54.924Z,95825.74
2018-08-10T08:09:25.452Z,95823.94
2018-08-10T08:11:55.932Z,95816.77
2018-08-10T08:14:26.496Z,95819.52
2018-08-10T08:16:57.910Z,95811.72
2018-08-10T08:19:28.398Z,95806.45
2018-08-10T08:22:10.904Z,95798.99
2018-08-10T08:24:42.203Z,95803.23
2018-08-10T08:27:14.510Z,95810.25
2018-08-10T08:29:44.611Z,95803.87
2018-08-10T08:32:15.461Z,95801.44
2018-08-10T08:34:45.936Z,95796.47
2018-08-10T08:37:17.496Z,95791.11
2018-08-10T08:40:31.238Z,95793.59
2018-08-10T08:43:01.615Z,95782.25
2018-08-10T08:45:51.449Z,95782.79
2018-08-10T08:48:22.142Z,95785.84
2018-08-10T08:50:54.367Z,95783.73
2018-08-10T08:53:25.184Z,95780.46
2018-08-10T08:56:00.314Z,95779.52
2018-08-10T08:58:31.361Z,95767.31
2018-08-10T09:01:02.319Z,95770.78
2018-08-10T09:03:43.540Z,95767.38
2018-08-10T09:06:14.560Z,95766.53
2018-08-10T09:08:55.730Z,95759.80
2018-08-10T09:11:26.288Z,95755.41
2018-08-10T09:15:01.580Z,95758.12
2018-08-10T09:17:31.931Z,95748.47
2018-08-10T09:20:02.016Z,95750.80
2018-08-10T09:22:32.273Z,95747.95
2018-08-10T09:25:03.713Z,95747.64
2018-08-10T09:27:34.049Z,95743.03
2018-08-10T09:30:05.451Z,95742.31
2018-08-10T09:32:35.976Z,95742.78
2018-08-10T09:35:07.966Z,95744.62
2018-08-10T09:37:38.538Z,95747.23
2018-08-10T09:40:14.537Z,95741.67
2018-08-10T09:42:45.187Z,95737.07
2018-08-10T09:45:17.814Z,95747.87
2018-08-10T09:47:49.216Z,95742.25
2018-08-10T09:50:20.619Z,95743.86
2018-08-10T09:52:58.926Z,95748.55
2018-08-10T09:55:31.361Z,95736.14
2018-08-10T09:58:09.420Z,95731.98
2018-08-10T10:00:44.944Z,95725.66
2018-08-10T10:03:18.792Z,95729.95
2018-08-10T10:05:51.653Z,95728.61
2018-08-10T10:08:22.539Z,95722.64
2018-08-10T10:10:53.364Z,95727.45
2018-08-10T10:13:24.050Z,95716.38
2018-08-10T10:15:55.014Z,95712.58
2018-08-10T10:18:26.340Z,95709.58
2018-08-10T10:20:56.852Z,95713.78
2018-08-10T10:23:26.726Z,95721.86
2018-08-10T10:25:56.834Z,95721.68
2018-08-10T10:28:26.461Z,95706.03
2018-08-10T10:30:56.937Z,95710.87
2018-08-10T10:33:26.641Z,95713.98
2018-08-10T10:35:56.500Z,95712.10
2018-08-10T10:38:27.444Z,95699.13
2018-08-10T10:40:58.188Z,95715.05
2018-08-10T10:43:28.516Z,95704.80
2018-08-10T10:45:59.955Z,95708.00
2018-08-10T10:48:30.156Z,95693.75
2018-08-10T10:51:00.744Z,95703.63
2018-08-10T10:53:31.464Z,95709.16
2018-08-10T10:56:02.895Z,95706.69
2018-08-10T10:58:33.781Z,95702.31
2018-08-10T11:01:04.190Z,95707.22
2018-08-10T11:03:34.988Z,95700.73
2018-08-10T11:06:05.628Z,95709.52
2018-08-10T11:08:36.161Z,95702.47
2018-08-10T11:11:06.378Z,95702.59
2018-08-10T11:13:36.820Z,95698.52
2018-08-10T11:16:07.398Z,95690.47
2018-08-10T11:18:38.383Z,95699.36
2018-08-10T11:21:08.765Z,95695.87
2018-08-10T11:23:39.561Z,95693.73
2018-08-10T11:26:10.670Z,95689.08
2018-08-10T11:28:40.960Z,95679.57
2018-08-10T11:31:11.740Z,95678.39
2018-08-10T11:33:42.363Z,95683.28
2018-08-10T11:36:13.385Z,95688.97
2018-08-10T11:38:44.464Z,95696.09
2018-08-10T11:41:14.828Z,95690.20
2018-08-10T11:43:45.460Z,95686.64
2018-08-10T11:46:16.516Z,95684.36
2018-08-10T11:48:47.003Z,95677.61
2018-08-10T11:51:17.714Z,95678.52
2018-08-10T11:53:48.052Z,95677.03
2018-08-10T11:56:18.518Z,95676.35
2018-08-10T11:58:48.351Z,95686.25
2018-08-10T12:01:18.245Z,95672.02
2018-08-10T12:03:48.540Z,95669.96
2018-08-10T12:06:18.872Z,95669.72
2018-08-10T12:08:48.718Z,95664.07
2018-08-10T12:11:18.316Z,95667.02
2018-08-10T12:13:48.161Z,95668.88
2018-08-10T12:16:17.871Z,95664.64
2018-08-10T12:18:47.583Z,95665.44
2018-08-10T12:21:17.242Z,95660.95
2018-08-10T12:23:47.099Z,95663.97
2018-08-10T12:26:16.873Z,95664.17
2018-08-10T12:28:46.617Z,95661.16
2018-08-10T12:31:16.425Z,95653.67
2018-08-10T12:33:46.152Z,95644.34
2018-08-10T12:36:15.769Z,95640.83
2018-08-10T12:38:45.499Z,95636.97
2018-08-10T12:41:15.555Z,95643.77
2018-08-10T12:43:45.240Z,95638.20
2018-08-10T12:46:15.077Z,95639.70
2018-08-10T12:48:44.837Z,95635.41
2018-08-10T12:51:14.612Z,95631.33
2018-08-10T12:53:44.191Z,95630.46
2018-08-10T12:56:14.134Z,95622.55
2018-08-10T12:58:43.931Z,95634.14
2018-08-10T13:01:13.872Z,95627.36
2018-08-10T13:03:43.599Z,95620.34
2018-08-10T13:06:13.308Z,95622.69
2018-08-10T13:08:43.107Z,95623.00
2018-08-10T13:11:12.788Z,95630.44
2018-08-10T13:13:42.510Z,95624.23
2018-08-10T13:16:12.307Z,95624.80
2018-08-10T13:18:41.853Z,95623.05
2018-08-10T13:21:11.707Z,95627.20
2018-08-10T13:23:41.438Z,95627.73
2018-08-10T13:26:11.093Z,95619.44
2018-08-10T13:28:40.904Z,95624.26
2018-08-10T13:31:10.712Z,95626.73
2018-08-10T13:33:40.514Z,95629.92
2018-08-10T13:36:10.312Z,95631.33
2018-08-10T13:38:40.058Z,95630.88
2018-08-10T13:41:09.895Z,95634.69
2018-08-10T13:43:40.126Z,95639.82
2018-08-10T13:46:10.189Z,95634.53
2018-08-10T13:48:39.752Z,95636.86
2018-08-10T13:51:09.708Z,95628.41
2018-08-10T13:53:39.439Z,95631.48
2018-08-10T13:56:09.297Z,95626.28
2018-08-10T13:58:39.223Z,95626.06
2018-08-10T14:01:09.061Z,95628.63
2018-08-10T14:03:38.806Z,95632.74
2018-08-10T14:06:08.632Z,95639.20
2018-08-10T14:08:38.627Z,95639.17
2018-08-10T14:11:08.441Z,95635.49
2018-08-10T14:13:38.332Z,95641.70
2018-08-10T14:16:08.181Z,95639.64
2018-08-10T14:18:38.086Z,95645.70
2018-08-10T14:21:07.990Z,95640.81
2018-08-10T14:23:37.864Z,95633.14
2018-08-10T14:26:07.781Z,95636.11
2018-08-10T14:28:37.433Z,95645.34
2018-08-10T14:31:07.408Z,95644.70
2018-08-10T14:33:37.351Z,95647.43
2018-08-10T14:36:07.199Z,95641.19
2018-08-10T14:38:36.895Z,95638.66
2018-08-10T14:41:06.697Z,95640.55
2018-08-10T14:43:36.415Z,95642.14
2018-08-10T14:46:06.702Z,95646.95
2018-08-10T14:48:36.591Z,95639.84
2018-08-10T14:51:06.394Z,95649.14
2018-08-10T14:53:36.119Z,95648.33
2018-08-10T14:56:05.864Z,95651.27
2018-08-10T14:59:37.938Z,95654.56
2018-08-10T15:02:08.017Z,95655.69
2018-08-10T15:04:37.956Z,95661.73
2018-08-10T15:07:08.020Z,95657.41
2018-08-10T15:09:37.712Z,95666.66
2018-08-10T15:12:07.807Z,95661.76
2018-08-10T15:14:38.027Z,95661.16
2018-08-10T15:17:07.897Z,95662.71
2018-08-10T15:19:38.589Z,95655.41
2018-08-10T15:22:09.241Z,95662.31
2018-08-10T15:24:39.219Z,95662.13
2018-08-10T15:27:08.963Z,95655.70
2018-08-10T15:29:38.696Z,95659.00
2018-08-10T15:32:08.537Z,95658.20
2018-08-10T15:34:38.361Z,95655.05
2018-08-10T15:37:08.220Z,95663.95
2018-08-10T15:39:38.126Z,95667.39
2018-08-10T15:42:07.999Z,95663.28
2018-08-10T15:44:37.779Z,95669.89
2018-08-10T15:47:08.822Z,95671.42
2018-08-10T15:49:38.658Z,95673.86
2018-08-10T15:52:08.649Z,95669.73
2018-08-10T15:54:39.274Z,95675.86
2018-08-10T15:57:09.217Z,95676.34
2018-08-10T15:59:41.905Z,95672.91
2018-08-10T16:02:11.933Z,95670.39
2018-08-10T16:04:42.916Z,95675.09
2018-08-10T16:07:12.658Z,95679.97
2018-08-10T16:09:42.374Z,95685.36
2018-08-10T16:12:12.137Z,95685.75
2018-08-10T16:14:41.899Z,95691.17
2018-08-10T16:17:11.736Z,95690.28
2018-08-10T16:19:42.139Z,95700.25
2018-08-10T16:22:12.003Z,95700.66
2018-08-10T16:24:41.895Z,95702.95
2018-08-10T16:27:12.262Z,95721.70
2018-08-10T16:29:41.940Z,95711.18
2018-08-10T16:32:11.800Z,95716.45
2018-08-10T16:34:41.582Z,95728.50
2018-08-10T16:37:11.579Z,95719.02
2018-08-10T16:39:41.428Z,95714.68
2018-08-10T16:42:11.148Z,95712.98
2018-08-10T16:44:41.073Z,95722.28
2018-08-10T16:47:11.292Z,95721.36
2018-08-10T16:49:41.172Z,95717.23
2018-08-10T16:52:10.945Z,95722.83
2018-08-10T16:54:40.652Z,95717.34
2018-08-10T16:57:10.475Z,95723.41
2018-08-10T16:59:40.336Z,95727.09
2018-08-10T17:02:11.529Z,95727.69
2018-08-10T17:04:42.357Z,95731.11
2018-08-10T17:07:12.271Z,95735.45
2018-08-10T17:09:42.086Z,95740.00
2018-08-10T17:12:11.893Z,95743.70
2018-08-10T17:14:41.601Z,95741.91
2018-08-10T17:17:11.485Z,95749.93
2018-08-10T17:19:41.349Z,95758.31
2018-08-10T17:22:11.014Z,95759.33
2018-08-10T17:24:40.644Z,95758.13
2018-08-10T17:27:10.754Z,95761.64
2018-08-10T17:29:40.456Z,95766.78
2018-08-10T17:32:10.254Z,95763.42
2018-08-10T17:34:40.010Z,95763.63
2018-08-10T17:37:09.881Z,95774.64
2018-08-10T17:39:39.881Z,95780.60
2018-08-10T17:42:09.671Z,95779.14
2018-08-10T17:44:39.357Z,95786.95
2018-08-10T17:47:09.276Z,95790.70
2018-08-10T17:49:39.440Z,95794.66
2018-08-10T17:52:09.318Z,95799.43
2018-08-10T17:54:38.971Z,95806.81
2018-08-10T17:57:08.855Z,95806.88
2018-08-10T17:59:38.741Z,95812.16
2018-08-10T18:02:08.684Z,95813.14
2018-08-10T18:04:38.451Z,95819.23
2018-08-10T18:07:08.613Z,95830.69
2018-08-10T18:10:27.932Z,95835.55
2018-08-10T18:12:57.694Z,95838.42
2018-08-10T18:15:27.483Z,95849.95
2018-08-10T18:17:57.134Z,95854.33
2018-08-10T18:20:26.927Z,95864.18
2018-08-10T18:22:56.645Z,95863.30
2018-08-10T18:25:26.433Z,95873.35
2018-08-10T18:27:55.984Z,95866.45
2018-08-10T18:30:26.492Z,95877.48
2018-08-10T18:32:56.332Z,95879.69
2018-08-10T18:35:26.154Z,95886.77
2018-08-10T18:37:55.986Z,95892.91
2018-08-10T18:40:25.915Z,95888.05
2018-08-10T18:42:55.737Z,95888.58
2018-08-10T18:45:25.622Z,95895.19
2018-08-10T18:47:55.421Z,95892.66
2018-08-10T18:50:25.578Z,95893.89
2018-08-10T18:52:55.234Z,95898.75
2018-08-10T18:55:25.318Z,95906.64
2018-08-10T18:57:55.101Z,95900.72
2018-08-10T19:00:26.633Z,95906.23
2018-08-10T19:02:57.061Z,95858.30
2018-08-10T19:05:26.883Z,95902.41
2018-08-10T19:07:57.656Z,95905.64
2018-08-10T19:10:29.006Z,95910.34
2018-08-10T19:12:58.776Z,95912.77
2018-08-10T19:15:28.477Z,95918.19
2018-08-10T19:17:59.555Z,95918.77
2018-08-10T19:20:29.457Z,95921.11
2018-08-10T19:22:59.236Z,95916.92
2018-08-10T19:25:29.615Z,95917.39
2018-08-10T19:27:59.888Z,95916.46
2018-08-10T19:30:29.713Z,95922.16
2018-08-10T19:33:00.442Z,95920.75
2018-08-10T19:35:30.676Z,95924.25
2018-08-10T19:38:00.869Z,95922.22
2018-08-10T19:40:30.653Z,95917.48
2018-08-10T19:43:00.355Z,95949.94
2018-08-10T19:45:30.255Z,95928.64
2018-08-10T19:47:59.958Z,95923.28
2018-08-10T19:50:30.188Z,95921.06
2018-08-10T19:52:59.914Z,95923.02
2018-08-10T19:55:29.589Z,95923.97
2018-08-10T19:57:59.436Z,95925.54
2018-08-10T20:00:29.276Z,95926.55
2018-08-10T20:02:59.023Z,95919.89
2018-08-10T20:05:28.956Z,95926.32
2018-08-10T20:07:58.757Z,95930.95
2018-08-10T20:10:28.851Z,95933.45
2018-08-10T20:12:58.685Z,95928.59
2018-08-10T20:15:28.606Z,95926.64
2018-08-10T20:17:58.153Z,95929.38
2018-08-10T20:20:27.842Z,95926.57
2018-08-10T20:22:57.648Z,95927.91
2018-08-10T20:25:27.351Z,95926.91
2018-08-10T20:27:57.002Z,95926.32
2018-08-10T20:30:26.698Z,95927.80
2018-08-10T20:32:56.406Z,95928.33
2018-08-10T20:35:26.275Z,95924.05
2018-08-10T20:37:55.944Z,95930.06
2018-08-10T20:40:25.756Z,95924.22
2018-08-10T20:42:55.612Z,95930.04
2018-08-10T20:45:25.404Z,95927.91
2018-08-10T20:47:55.223Z,95929.28
2018-08-10T20:50:25.748Z,95927.82
2018-08-10T20:52:55.890Z,95922.38
2018-08-10T20:55:25.753Z,95931.63
2018-08-10T20:57:55.974Z,95929.84
2018-08-10T21:00:25.657Z,95927.14
2018-08-10T21:02:55.269Z,95931.19
2018-08-10T21:05:24.770Z,95925.89
2018-08-10T21:07:54.634Z,95923.97
2018-08-10T21:10:24.417Z,95929.84
2018-08-10T21:12:54.871Z,95936.36
2018-08-10T21:15:25.466Z,95930.95
2018-08-10T21:17:57.168Z,95926.34
2018-08-10T21:20:28.065Z,95928.69
2018-08-10T21:22:58.637Z,95926.56
2018-08-10T21:25:29.235Z,95923.97
2018-08-10T21:28:01.184Z,95928.24
2018-08-10T21:30:31.813Z,95926.69
2018-08-10T21:33:02.478Z,95920.58
2018-08-10T21:35:33.338Z,95925.10
2018-08-10T21:38:04.340Z,95921.72
2018-08-10T21:40:34.250Z,95923.83
2018-08-10T21:43:04.032Z,95922.84
2018-08-10T21:45:33.788Z,95926.80
2018-08-10T21:48:04.130Z,95923.67
2018-08-10T21:50:34.000Z,95928.25
2018-08-10T21:53:04.047Z,95921.45
2018-08-10T21:55:33.762Z,95925.64
2018-08-10T21:58:03.628Z,95926.36
2018-08-10T22:00:55.747Z,95922.33
2018-08-10T22:03:25.575Z,95924.59
2018-08-10T22:05:56.128Z,95921.49
2018-08-10T22:08:27.619Z,95919.69
2018-08-10T22:10:58.032Z,95917.50
2018-08-10T22:13:33.013Z,95922.11
2018-08-10T22:16:08.409Z,95920.52
2018-08-10T22:18:44.249Z,95923.42
2018-08-10T22:21:14.937Z,95919.86
2018-08-10T22:23:45.273Z,95919.40
2018-08-10T22:26:15.976Z,95922.73
2018-08-10T22:28:47.600Z,95917.88
2018-08-10T22:31:18.357Z,95910.55
2018-08-10T22:33:49.032Z,95913.48
2018-08-10T22:36:19.078Z,95913.71
2018-08-10T22:38:51.117Z,95923.20
2018-08-10T22:41:21.764Z,95919.59
2018-08-10T22:43:52.409Z,95917.44
2018-08-10T22:46:23.120Z,95907.20
2018-08-10T22:48:52.978Z,95919.48
2018-08-10T22:51:22.905Z,95923.94
2018-08-10T22:53:53.080Z,95915.94
2018-08-10T22:56:22.934Z,95914.10
2018-08-10T22:58:52.752Z,95909.16
2018-08-10T23:01:22.423Z,95672.31
2018-08-10T23:03:52.176Z,95909.76
2018-08-10T23:06:21.989Z,95904.38
2018-08-10T23:08:51.928Z,95903.27
2018-08-10T23:11:21.818Z,95899.92
2018-08-10T23:13:51.528Z,95907.74
2018-08-10T23:16:22.028Z,95907.59
2018-08-10T23:18:52.971Z,95901.80
2018-08-10T23:21:22.853Z,95897.83
2018-08-10T23:23:52.664Z,95899.53
2018-08-10T23:26:22.384Z,95904.78
2018-08-10T23:28:52.556Z,95905.66
2018-08-10T23:31:22.389Z,95903.20
2018-08-10T23:33:52.145Z,95903.34
2018-08-10T23:36:21.979Z,95902.25
2018-08-10T23:38:51.743Z,95899.14
2018-08-10T23:41:21.472Z,95904.84
2018-08-10T23:43:51.097Z,95900.66
2018-08-10T23:46:20.877Z,95896.20
2018-08-10T23:48:50.737Z,95897.41
2018-08-10T23:51:20.586Z,95895.07
2018-08-10T23:53:50.317Z,95901.59
2018-08-10T23:56:20.722Z,95894.16
2018-08-10T23:58:50.635Z,95895.88
